Time;durP1;ratioP1;P1;durP2;ratioP2;P2;SDS_P1;SDS_P2;PMS_P1;PMS_P2;Temp;Humidity;BMP_temperature;BMP_pressure;BME280_temperature;BME280_humidity;BME280_pressure;Samples;Min_cycle;Max_cycle;Signal;HPM_P1;HPM_P2
2021/09/25 00:02:03;;;;;;;8.43;4.00;;;16.80;99.20;;;14.44;100.00;100543.78;4991874;28;20054;-73
2021/09/25 00:04:30;;;;;;;8.05;4.80;;;16.70;99.10;;;14.41;100.00;100544.22;4993014;28;20058;-73
2021/09/25 00:06:59;;;;;;;8.10;4.38;;;16.70;99.20;;;14.33;100.00;100549.88;4993997;28;20050;-74
2021/09/25 00:09:26;;;;;;;8.50;4.63;;;16.70;99.20;;;14.35;100.00;100545.03;4993564;28;20042;-74
2021/09/25 00:11:54;;;;;;;8.05;4.38;;;16.70;99.20;;;14.32;100.00;100539.97;4995354;28;20042;-75
2021/09/25 00:14:21;;;;;;;12.25;4.60;;;16.70;99.20;;;14.25;100.00;100550.91;4995187;28;20588;-73
2021/09/25 00:16:49;;;;;;;8.65;4.50;;;16.70;99.20;;;14.26;100.00;100543.56;4994014;28;20085;-74
2021/09/25 00:19:17;;;;;;;9.00;4.65;;;16.60;99.10;;;14.30;100.00;100543.97;4999279;28;20048;-73
2021/09/25 00:21:44;;;;;;;7.30;4.40;;;16.60;99.20;;;14.35;100.00;100546.91;5014727;28;20050;-73
2021/09/25 00:24:15;;;;;;;8.07;4.18;;;16.60;99.30;;;14.31;100.00;100545.66;5016212;28;20046;-72
2021/09/25 00:26:42;;;;;;;10.60;4.32;;;16.60;99.30;;;14.28;100.00;100535.97;5015206;28;20556;-73
2021/09/25 00:29:10;;;;;;;8.43;4.32;;;16.60;99.30;;;14.26;100.00;100533.44;5029677;28;20072;-72
2021/09/25 00:31:37;;;;;;;10.10;4.70;;;16.60;99.30;;;14.19;100.00;100531.75;5033067;28;20459;-73
2021/09/25 00:34:05;;;;;;;9.77;4.72;;;16.50;99.30;;;14.18;100.00;100536.34;5021487;28;20140;-73
2021/09/25 00:36:32;;;;;;;9.73;5.03;;;16.50;99.40;;;14.19;100.00;100535.31;5013475;28;20046;-73
2021/09/25 00:39:00;;;;;;;9.50;4.35;;;16.50;99.40;;;14.13;100.00;100543.53;5014015;28;20089;-73
2021/09/25 00:41:28;;;;;;;8.40;4.70;;;16.50;99.40;;;14.15;100.00;100533.22;5015564;28;20073;-73
2021/09/25 00:43:56;;;;;;;7.43;4.53;;;16.50;99.50;;;14.17;100.00;100531.94;5014610;28;20561;-73
2021/09/25 00:46:24;;;;;;;7.35;4.38;;;16.50;99.50;;;14.09;100.00;100540.38;5015745;28;20054;-73
2021/09/25 00:48:52;;;;;;;9.88;4.47;;;16.50;99.50;;;14.14;100.00;100528.78;5014643;28;20038;-74
2021/09/25 00:51:19;;;;;;;8.38;4.88;;;16.40;99.40;;;14.08;100.00;100528.56;5014416;28;20526;-75
2021/09/25 00:53:47;;;;;;;9.32;4.25;;;16.40;99.60;;;14.10;100.00;100525.63;5015628;28;20042;-73
2021/09/25 00:56:14;;;;;;;10.32;5.15;;;16.40;99.60;;;14.11;100.00;100538.25;5015228;28;20049;-75
2021/09/25 00:58:43;;;;;;;8.30;4.40;;;16.40;99.60;;;13.99;100.00;100535.28;5014372;28;20114;-74
2021/09/25 01:01:11;;;;;;;9.10;4.60;;;16.40;99.50;;;14.00;100.00;100536.97;5014671;28;20049;-74
2021/09/25 01:03:38;;;;;;;9.68;5.00;;;16.40;99.60;;;14.00;100.00;100539.69;5016034;28;20077;-75
2021/09/25 01:06:06;;;;;;;8.52;4.70;;;16.40;99.60;;;13.99;100.00;100538.03;5024353;22;20088;-75
2021/09/25 01:08:34;;;;;;;8.80;4.95;;;16.30;99.70;;;13.99;100.00;100540.78;5061994;28;20045;-73
2021/09/25 01:11:02;;;;;;;7.65;4.57;;;16.30;99.70;;;13.98;100.00;100543.72;5054558;28;20063;-75
2021/09/25 01:13:30;;;;;;;10.27;5.20;;;16.30;99.70;;;13.99;100.00;100548.13;5054971;28;20472;-75
2021/09/25 01:15:59;;;;;;;9.77;5.30;;;16.30;99.70;;;13.96;100.00;100543.91;5053848;28;20531;-73
2021/09/25 01:18:26;;;;;;;12.43;5.55;;;16.30;99.80;;;13.92;100.00;100545.38;5053590;28;20500;-74
2021/09/25 01:20:54;;;;;;;10.23;5.03;;;16.30;99.80;;;13.87;100.00;100547.88;5062818;23;20041;-75
2021/09/25 01:23:25;;;;;;;7.97;4.65;;;16.30;99.80;;;13.94;100.00;100554.22;5054788;28;20185;-73
2021/09/25 01:25:52;;;;;;;10.77;5.03;;;16.30;99.80;;;13.84;100.00;100546.41;5052677;28;20048;-74
2021/09/25 01:28:20;;;;;;;12.68;5.35;;;16.20;99.70;;;13.88;100.00;100544.09;5070355;28;20061;-72
2021/09/25 01:30:47;;;;;;;10.90;5.07;;;16.20;99.90;;;13.85;100.00;100549.97;5070622;28;20538;-73
2021/09/25 01:33:14;;;;;;;8.35;4.78;;;16.20;99.90;;;13.86;100.00;100540.72;5052784;28;20064;-73
2021/09/25 01:35:42;;;;;;;10.10;5.72;;;16.10;99.90;;;13.81;100.00;100549.53;5070424;28;20109;-73
2021/09/25 01:38:09;;;;;;;12.70;6.03;;;16.20;99.80;;;13.81;100.00;100543.22;5069578;28;20072;-73
2021/09/25 01:40:38;;;;;;;10.05;5.75;;;16.20;99.90;;;13.79;100.00;100548.91;5069999;28;20053;-73
2021/09/25 01:43:05;;;;;;;11.55;5.95;;;16.20;99.90;;;13.77;100.00;100552.91;5069707;28;20048;-73
2021/09/25 01:45:33;;;;;;;12.35;5.90;;;16.20;99.90;;;13.75;100.00;100544.06;5069946;28;20037;-73
2021/09/25 01:48:00;;;;;;;9.05;5.30;;;16.10;99.90;;;13.82;100.00;100550.38;5069374;28;20536;-73
2021/09/25 01:50:27;;;;;;;9.07;5.25;;;16.10;99.90;;;13.85;100.00;100544.50;5069556;28;20491;-73
2021/09/25 01:52:55;;;;;;;14.93;6.50;;;16.10;99.90;;;13.79;100.00;100534.38;5069212;28;20052;-73
2021/09/25 01:55:22;;;;;;;11.88;5.80;;;16.10;99.90;;;13.81;100.00;100540.50;5069096;28;20052;-72
2021/09/25 01:57:51;;;;;;;12.13;5.97;;;16.10;99.90;;;13.80;100.00;100545.13;5069400;28;20143;-72
2021/09/25 02:00:19;;;;;;;12.25;6.15;;;16.10;99.90;;;13.80;100.00;100538.78;5051431;28;20106;-73
2021/09/25 02:02:47;;;;;;;14.07;6.10;;;16.10;99.90;;;13.77;100.00;100540.06;5068802;28;20048;-73
2021/09/25 02:05:16;;;;;;;11.93;5.90;;;16.10;99.90;;;13.76;100.00;100530.16;5069232;28;20124;-72
2021/09/25 02:07:44;;;;;;;11.98;6.45;;;16.10;99.90;;;13.83;100.00;100538.41;5068605;28;20474;-73
2021/09/25 02:10:12;;;;;;;15.45;6.78;;;16.00;99.90;;;13.83;100.00;100539.22;5068810;28;20047;-73
2021/09/25 02:12:40;;;;;;;13.52;6.43;;;16.10;99.90;;;13.91;100.00;100535.47;5050969;28;20680;-73
2021/09/25 02:15:11;;;;;;;11.13;5.57;;;16.10;99.90;;;14.05;100.00;100539.94;5069437;28;20044;-73
2021/09/25 02:17:38;;;;;;;12.63;6.35;;;16.10;99.90;;;14.09;100.00;100543.09;5070355;28;20060;-72
2021/09/25 02:20:09;;;;;;;11.95;6.28;;;16.20;99.90;;;14.15;100.00;100549.66;5070806;28;20082;-73
2021/09/25 02:22:37;;;;;;;11.18;6.20;;;16.10;99.90;;;14.20;100.00;100545.22;5072366;28;20114;-73
2021/09/25 02:25:07;;;;;;;15.95;6.70;;;16.20;99.90;;;14.24;100.00;100542.91;5070197;28;20048;-73
2021/09/25 02:27:39;;;;;;;12.43;6.65;;;16.20;99.90;;;14.30;100.00;100542.09;5070653;28;20119;-73
2021/09/25 02:30:12;;;;;;;12.73;6.75;;;16.30;99.90;;;14.29;100.00;100540.38;5051596;28;20044;-73
2021/09/25 02:32:40;;;;;;;12.20;6.53;;;16.30;99.90;;;14.38;100.00;100536.41;5053162;28;20585;-73
2021/09/25 02:35:09;;;;;;;11.85;5.90;;;16.30;99.90;;;14.41;100.00;100527.78;5069864;28;20086;-72
2021/09/25 02:37:36;;;;;;;10.57;5.65;;;16.30;99.90;;;14.40;100.00;100522.50;5071764;28;20507;-73
2021/09/25 02:40:05;;;;;;;11.77;5.88;;;16.30;99.90;;;14.45;100.00;100529.03;5051468;28;20040;-73
2021/09/25 02:42:33;;;;;;;10.77;6.00;;;16.40;99.90;;;14.44;100.00;100524.59;5052356;28;20137;-72
2021/09/25 02:45:00;;;;;;;12.60;6.18;;;16.40;99.90;;;14.50;100.00;100524.81;5052298;28;20064;-73
2021/09/25 02:47:29;;;;;;;12.05;6.53;;;16.40;99.90;;;14.51;100.00;100519.16;5067636;28;20052;-73
2021/09/25 02:49:56;;;;;;;11.77;6.75;;;16.40;99.90;;;14.52;100.00;100522.72;5072020;28;20793;-73
2021/09/25 02:52:26;;;;;;;11.48;6.50;;;16.40;99.90;;;14.55;100.00;100525.88;5070989;28;20558;-73
2021/09/25 02:54:53;;;;;;;11.38;6.70;;;16.40;99.90;;;14.58;100.00;100528.25;5071533;28;20040;-73
2021/09/25 02:57:21;;;;;;;14.80;6.78;;;16.50;99.90;;;14.60;100.00;100530.75;5070677;28;20099;-75
2021/09/25 02:59:48;;;;;;;11.63;6.72;;;16.50;99.90;;;14.62;100.00;100528.63;5071404;28;20052;-73
2021/09/25 03:02:15;;;;;;;12.00;6.95;;;16.50;99.90;;;14.63;100.00;100520.22;5053273;28;20155;-75
2021/09/25 03:04:44;;;;;;;13.98;6.68;;;16.40;99.90;;;14.61;100.00;100521.50;5072603;28;20071;-74
2021/09/25 03:07:12;;;;;;;11.32;6.82;;;16.40;99.90;;;14.60;100.00;100530.75;5054223;28;20044;-73
2021/09/25 03:09:39;;;;;;;12.15;7.15;;;16.50;99.90;;;14.59;100.00;100518.13;5071242;28;20068;-75
2021/09/25 03:12:07;;;;;;;14.20;7.43;;;16.50;99.90;;;14.64;100.00;100512.81;5071454;28;20056;-76
2021/09/25 03:14:35;;;;;;;15.93;7.45;;;16.50;99.90;;;14.59;100.00;100520.84;5070626;28;20561;-74
2021/09/25 03:17:02;;;;;;;15.85;6.85;;;16.50;99.90;;;14.58;100.00;100514.53;5053078;28;20834;-75
2021/09/25 03:19:30;;;;;;;14.43;6.90;;;16.50;99.90;;;14.65;100.00;100514.53;5052819;28;20048;-74
2021/09/25 03:21:59;;;;;;;11.52;6.32;;;16.50;99.90;;;14.66;100.00;100516.22;5071518;28;20060;-75
2021/09/25 03:24:26;;;;;;;12.38;6.10;;;16.50;99.90;;;14.67;100.00;100526.13;5070605;28;20100;-75
2021/09/25 03:26:53;;;;;;;10.63;6.20;;;16.50;99.90;;;14.72;100.00;100520.03;5070383;28;20045;-74
2021/09/25 03:29:21;;;;;;;14.43;7.40;;;16.60;99.90;;;14.72;100.00;100529.06;5069996;28;20037;-75
2021/09/25 03:31:49;;;;;;;14.75;6.63;;;16.60;99.90;;;14.71;100.00;100521.91;5069695;28;20068;-73
2021/09/25 03:34:16;;;;;;;10.95;6.05;;;16.60;99.90;;;14.74;100.00;100520.66;5069241;28;20044;-72
2021/09/25 03:36:44;;;;;;;11.88;6.57;;;16.60;99.90;;;14.71;100.00;100516.41;5068066;28;20037;-75
2021/09/25 03:39:13;;;;;;;12.85;5.85;;;16.60;99.90;;;14.74;100.00;100518.75;5068851;28;20052;-73
2021/09/25 03:41:40;;;;;;;12.65;6.75;;;16.60;99.90;;;14.76;100.00;100513.88;5069541;28;20083;-73
2021/09/25 03:44:07;;;;;;;11.43;6.13;;;16.60;99.90;;;14.72;100.00;100511.81;5069450;28;20464;-72
2021/09/25 03:46:35;;;;;;;14.52;6.90;;;16.60;99.90;;;14.69;100.00;100513.03;5069360;28;20044;-73
2021/09/25 03:49:02;;;;;;;12.38;6.03;;;16.60;99.90;;;14.72;100.00;100514.53;5069073;28;20040;-73
2021/09/25 03:51:29;;;;;;;15.07;6.78;;;16.60;99.90;;;14.70;100.00;100514.75;5068701;28;20037;-72
2021/09/25 03:53:57;;;;;;;10.70;6.25;;;16.60;99.90;;;14.68;100.00;100516.00;5068855;28;20083;-73
2021/09/25 03:56:26;;;;;;;11.35;6.50;;;16.60;99.90;;;14.70;100.00;100516.63;5081634;22;20040;-69
2021/09/25 03:58:53;;;;;;;10.73;6.35;;;16.60;99.90;;;14.72;100.00;100512.63;5065426;28;20092;-71
2021/09/25 04:01:20;;;;;;;13.05;6.68;;;16.60;99.90;;;14.72;100.00;100509.91;5055808;28;20582;-71
2021/09/25 04:03:48;;;;;;;13.57;6.55;;;16.70;99.90;;;14.74;100.00;100516.00;5047064;28;20058;-72
2021/09/25 04:06:15;;;;;;;11.63;6.05;;;16.70;99.90;;;14.74;100.00;100521.47;5046954;28;20045;-72
2021/09/25 04:08:42;;;;;;;14.60;6.43;;;16.70;99.90;;;14.76;100.00;100516.63;5046795;28;20844;-70
2021/09/25 04:11:10;;;;;;;13.65;7.07;;;16.70;99.90;;;14.68;100.00;100516.84;5047169;28;20041;-70
2021/09/25 04:13:38;;;;;;;11.77;6.60;;;16.70;99.90;;;14.75;100.00;100509.44;5029128;28;20531;-72
2021/09/25 04:16:06;;;;;;;12.57;7.47;;;16.70;99.90;;;14.72;100.00;100507.16;5046868;28;20045;-70
2021/09/25 04:18:33;;;;;;;12.90;6.82;;;16.70;99.90;;;14.71;100.00;100508.19;5028493;28;20052;-70
2021/09/25 04:21:01;;;;;;;13.27;7.45;;;16.70;99.90;;;14.68;100.00;100511.38;5029256;28;20060;-69
2021/09/25 04:23:28;;;;;;;14.63;6.72;;;16.70;99.90;;;14.67;100.00;100506.94;5046741;28;20044;-70
2021/09/25 04:25:55;;;;;;;12.93;6.93;;;16.70;99.90;;;14.71;100.00;100510.94;5047835;28;20911;-70
2021/09/25 04:28:23;;;;;;;13.52;6.97;;;16.60;99.90;;;14.76;100.00;100511.16;5049846;28;20722;-69
2021/09/25 04:30:52;;;;;;;16.23;7.70;;;16.70;99.90;;;14.76;100.00;100513.88;5056625;28;20098;-70
2021/09/25 04:33:19;;;;;;;13.70;8.15;;;16.60;99.90;;;14.75;100.00;100511.34;5052767;28;20051;-70
2021/09/25 04:35:47;;;;;;;14.32;7.45;;;16.70;99.90;;;14.78;100.00;100511.78;5051239;28;20140;-70
2021/09/25 04:38:14;;;;;;;15.07;7.03;;;16.70;99.90;;;14.73;100.00;100508.00;5051863;28;20098;-69
2021/09/25 04:40:41;;;;;;;15.73;7.93;;;16.70;99.90;;;14.77;100.00;100514.72;5070140;28;20041;-69
2021/09/25 04:43:09;;;;;;;14.32;7.78;;;16.70;99.90;;;14.78;100.00;100511.78;5070091;28;20098;-70
2021/09/25 04:45:36;;;;;;;13.75;7.68;;;16.70;99.90;;;14.78;100.00;100511.78;5069666;28;20320;-70
2021/09/25 04:48:06;;;;;;;15.68;7.90;;;16.70;99.90;;;14.76;100.00;100518.53;5069889;28;20140;-69
2021/09/25 04:50:34;;;;;;;13.30;7.32;;;16.70;99.90;;;14.75;100.00;100517.66;5070010;28;20050;-70
2021/09/25 04:53:09;;;;;;;14.63;7.05;;;16.70;99.90;;;14.76;100.00;100516.63;5070023;28;20125;-70
2021/09/25 04:55:37;;;;;;;12.07;7.38;;;16.70;99.90;;;14.82;100.00;100518.50;5051318;28;20106;-70
2021/09/25 04:58:05;;;;;;;13.88;7.13;;;16.70;99.90;;;14.86;100.00;100513.44;5070508;28;20040;-70
2021/09/25 05:00:33;;;;;;;14.00;7.88;;;16.70;99.90;;;14.88;100.00;100518.72;5085086;28;20480;-70
2021/09/25 05:03:01;;;;;;;14.15;7.68;;;16.70;99.90;;;14.83;100.00;100519.34;5051825;28;20044;-70
2021/09/25 05:05:30;;;;;;;16.38;8.55;;;16.70;99.90;;;14.86;100.00;100527.16;5069746;28;20060;-70
2021/09/25 05:07:57;;;;;;;13.32;8.00;;;16.70;99.90;;;14.87;100.00;100531.59;5069632;28;20117;-70
2021/09/25 05:10:25;;;;;;;14.88;7.65;;;16.70;99.90;;;14.87;100.00;100520.63;5069544;28;20577;-69
2021/09/25 05:12:52;;;;;;;15.13;8.32;;;16.70;99.90;;;14.88;100.00;100518.72;5069542;28;20071;-71
2021/09/25 05:15:19;;;;;;;16.27;7.53;;;16.70;99.90;;;14.89;100.00;100525.88;5051423;28;20082;-71
2021/09/25 05:17:47;;;;;;;14.77;7.60;;;16.70;99.90;;;14.81;100.00;100522.31;5051279;28;20523;-71
2021/09/25 05:20:14;;;;;;;15.88;7.32;;;16.70;99.90;;;14.86;100.00;100532.63;5069275;28;20055;-70
2021/09/25 05:22:43;;;;;;;15.05;8.35;;;16.70;99.90;;;14.91;100.00;100534.72;5069281;28;20072;-71
2021/09/25 05:25:11;;;;;;;14.25;7.70;;;16.80;99.90;;;14.90;100.00;100544.00;5069293;28;20565;-70
2021/09/25 05:27:39;;;;;;;15.07;7.90;;;16.80;99.90;;;14.88;100.00;100541.47;5069250;28;20151;-70
2021/09/25 05:30:09;;;;;;;14.85;7.82;;;16.80;99.90;;;14.82;100.00;100548.66;5050999;28;20055;-70
2021/09/25 05:32:37;;;;;;;14.32;7.65;;;16.80;99.90;;;14.80;100.00;100541.72;5051177;28;20053;-70
2021/09/25 05:35:06;;;;;;;19.33;8.13;;;16.80;99.90;;;14.78;100.00;100541.91;5069292;28;20064;-69
2021/09/25 05:37:34;;;;;;;16.90;7.80;;;16.80;99.90;;;14.82;100.00;100542.34;5068640;28;20102;-70
2021/09/25 05:40:03;;;;;;;14.93;7.60;;;16.80;99.70;;;14.87;100.00;100537.06;5068707;28;20036;-70
2021/09/25 05:42:31;;;;;;;16.77;8.32;;;16.80;99.90;;;14.92;100.00;100533.69;5050829;28;20052;-70
2021/09/25 05:44:58;;;;;;;15.38;7.97;;;16.80;99.70;;;14.90;100.00;100533.06;5068994;28;20067;-71
2021/09/25 05:47:26;;;;;;;15.90;7.72;;;16.80;99.70;;;14.89;100.00;100534.09;5069157;28;20450;-70
2021/09/25 05:49:54;;;;;;;16.60;8.15;;;16.80;99.90;;;14.85;100.00;100540.03;5068727;28;20468;-70
2021/09/25 05:52:21;;;;;;;15.00;8.13;;;16.80;99.90;;;14.85;100.00;100531.81;5068806;28;20573;-68
2021/09/25 05:54:49;;;;;;;15.07;7.80;;;16.80;99.90;;;14.88;100.00;100535.16;5068951;28;20120;-69
2021/09/25 05:57:18;;;;;;;14.63;7.55;;;16.80;99.90;;;14.96;100.00;100537.69;5068819;28;20091;-69
2021/09/25 05:59:45;;;;;;;14.23;7.43;;;16.80;99.80;;;15.02;100.00;100534.06;5085588;28;20626;-69
2021/09/25 06:02:13;;;;;;;17.35;7.82;;;16.80;99.90;;;15.02;100.00;100545.03;5052461;28;20508;-69
2021/09/25 06:04:40;;;;;;;16.55;7.30;;;16.80;99.90;;;15.02;100.00;100548.66;5048564;28;20135;-69
2021/09/25 06:07:11;;;;;;;13.55;7.40;;;16.80;99.80;;;15.04;100.00;100545.66;5048198;28;20069;-68
2021/09/25 06:09:39;;;;;;;16.65;7.97;;;16.80;99.90;;;15.09;100.00;100545.03;5030375;28;20045;-70
2021/09/25 06:12:07;;;;;;;13.27;7.90;;;16.80;99.90;;;15.10;100.00;100542.09;5048217;28;20032;-69
2021/09/25 06:14:39;;;;;;;16.25;7.68;;;16.80;99.70;;;15.15;100.00;100544.19;5048267;28;20076;-70
2021/09/25 06:17:07;;;;;;;15.57;8.30;;;16.80;99.80;;;15.18;100.00;100543.75;5047278;28;20045;-70
2021/09/25 06:19:34;;;;;;;12.75;8.02;;;16.90;99.90;;;15.21;100.00;100549.66;5029862;28;20052;-69
2021/09/25 06:22:01;;;;;;;14.10;8.10;;;16.90;99.90;;;15.18;100.00;100544.59;5048339;28;20629;-70
2021/09/25 06:24:29;;;;;;;15.95;8.32;;;16.90;99.90;;;15.20;100.00;100547.13;5030151;28;20052;-71
2021/09/25 06:26:56;;;;;;;16.83;8.57;;;16.90;99.90;;;15.16;100.00;100546.72;5048561;28;20447;-71
2021/09/25 06:29:23;;;;;;;15.65;8.23;;;17.00;99.80;;;15.22;100.00;100542.28;5029684;28;20051;-70
2021/09/25 06:31:52;;;;;;;13.90;7.28;;;17.00;99.70;;;15.23;100.00;100544.81;5048001;28;20052;-70
2021/09/25 06:34:19;;;;;;;13.65;7.50;;;17.00;99.70;;;15.24;100.00;100543.72;5054487;28;20143;-69
2021/09/25 06:36:47;;;;;;;19.42;8.13;;;17.00;99.80;;;15.25;100.00;100534.47;5067814;28;20040;-70
2021/09/25 06:39:14;;;;;;;14.93;7.82;;;17.00;99.60;;;15.32;100.00;100539.09;5067623;28;20102;-71
2021/09/25 06:41:42;;;;;;;16.80;8.02;;;17.00;99.60;;;15.35;100.00;100541.41;5067770;28;20040;-70
2021/09/25 06:44:09;;;;;;;17.17;8.20;;;17.00;99.80;;;15.37;100.00;100550.25;5053292;28;20516;-70
2021/09/25 06:46:36;;;;;;;14.45;8.20;;;17.10;99.80;;;15.38;100.00;100555.53;5056683;28;20052;-70
2021/09/25 06:49:05;;;;;;;14.63;8.40;;;17.10;99.80;;;15.37;100.00;100555.75;5048411;28;20052;-71
2021/09/25 06:51:32;;;;;;;13.98;8.05;;;17.10;99.70;;;15.38;100.00;100549.19;5067911;28;20110;-71
2021/09/25 06:54:00;;;;;;;14.02;8.32;;;17.10;99.70;;;15.39;100.00;100548.13;5066801;28;20094;-71
2021/09/25 06:56:27;;;;;;;15.45;8.05;;;17.10;99.60;;;15.42;100.00;100550.44;5067519;28;20463;-71
2021/09/25 06:58:55;;;;;;;17.50;8.77;;;17.10;99.60;;;15.44;100.00;100553.81;5060929;28;20131;-71
2021/09/25 07:01:22;;;;;;;14.10;8.15;;;17.20;99.50;;;15.49;100.00;100556.75;5047173;28;20405;-71
2021/09/25 07:03:49;;;;;;;14.35;8.43;;;17.10;99.30;;;15.49;100.00;100556.75;5047612;28;20060;-71
2021/09/25 07:06:18;;;;;;;20.02;8.80;;;17.10;99.30;;;15.48;100.00;100565.19;5047585;28;20065;-71
2021/09/25 07:08:46;;;;;;;21.90;8.45;;;17.20;99.40;;;15.49;100.00;100556.75;5047369;28;20045;-71
2021/09/25 07:11:13;;;;;;;16.65;8.93;;;17.20;99.50;;;15.50;100.00;100552.09;5047400;28;20041;-71
2021/09/25 07:13:42;;;;;;;15.55;8.18;;;17.20;99.20;;;15.52;100.00;100556.31;5047157;28;20134;-71
2021/09/25 07:16:11;;;;;;;13.85;7.70;;;17.20;99.30;;;15.55;100.00;100566.00;5047638;28;20677;-72
2021/09/25 07:18:38;;;;;;;15.23;7.57;;;17.20;99.30;;;15.64;100.00;100562.81;5047161;28;20444;-72
2021/09/25 07:21:06;;;;;;;13.73;7.65;;;17.20;99.30;;;15.74;100.00;100558.78;5047676;28;20037;-70
2021/09/25 07:23:36;;;;;;;13.88;8.13;;;17.30;99.00;;;15.82;100.00;100573.13;5047559;28;20053;-70
2021/09/25 07:26:04;;;;;;;15.60;7.97;;;17.30;99.40;;;15.86;100.00;100573.53;5029079;28;20041;-70
2021/09/25 07:28:33;;;;;;;13.18;7.80;;;17.30;99.50;;;15.91;100.00;100572.88;5047191;28;20500;-70
2021/09/25 07:31:01;;;;;;;14.45;8.00;;;17.40;99.30;;;15.96;100.00;100573.91;5047361;28;20041;-70
2021/09/25 07:33:29;;;;;;;15.90;8.40;;;17.40;99.00;;;15.98;100.00;100571.78;5050088;28;20534;-70
2021/09/25 07:35:56;;;;;;;13.65;8.15;;;17.40;99.10;;;16.00;100.00;100569.66;5066902;28;20538;-70
2021/09/25 07:38:24;;;;;;;13.65;7.88;;;17.40;98.60;;;16.01;100.00;100573.22;5066197;28;20051;-70
2021/09/25 07:40:54;;;;;;;12.02;7.40;;;17.40;98.50;;;16.06;100.00;100572.59;5067040;28;20037;-70
2021/09/25 07:43:22;;;;;;;12.82;7.55;;;17.40;98.50;;;16.08;100.00;100575.94;5067521;28;20048;-71
2021/09/25 07:45:49;;;;;;;14.20;8.43;;;17.40;98.60;;;16.11;100.00;100576.34;5067603;28;20044;-70
2021/09/25 07:48:17;;;;;;;12.60;7.60;;;17.50;98.70;;;16.11;100.00;100575.53;5063964;28;20052;-70
2021/09/25 07:50:44;;;;;;;12.40;7.38;;;17.50;98.60;;;16.15;100.00;100582.25;5057394;28;20076;-72
2021/09/25 07:53:12;;;;;;;10.27;6.68;;;17.50;98.60;;;16.14;100.00;100586.88;5028767;28;20503;-72
2021/09/25 07:55:39;;;;;;;12.75;7.20;;;17.50;98.60;;;16.20;100.00;100585.16;5044893;28;20051;-72
2021/09/25 07:58:08;;;;;;;15.32;7.22;;;17.50;98.50;;;16.23;100.00;100596.56;5049654;28;20122;-73
2021/09/25 08:00:37;;;;;;;12.30;7.05;;;17.60;98.00;;;16.33;100.00;100608.97;5068506;28;20412;-72
2021/09/25 08:03:04;;;;;;;10.85;6.47;;;17.60;98.60;;;16.37;100.00;100597.34;5072623;28;20108;-72
2021/09/25 08:05:32;;;;;;;13.85;7.53;;;17.60;98.40;;;16.42;100.00;100596.66;5052365;28;20139;-73
2021/09/25 08:07:59;;;;;;;14.23;6.90;;;17.70;98.40;;;16.42;100.00;100613.97;5054983;28;20110;-72
2021/09/25 08:10:26;;;;;;;12.50;6.90;;;17.70;98.30;;;16.41;99.50;100608.69;5050089;28;20044;-72
2021/09/25 08:12:54;;;;;;;11.80;6.70;;;17.70;98.10;;;16.47;99.88;100618.81;5049086;28;20049;-72
2021/09/25 08:15:23;;;;;;;11.90;6.57;;;17.70;98.20;;;16.45;99.94;100622.84;5050720;28;20132;-73
2021/09/25 08:17:50;;;;;;;12.07;6.82;;;17.70;98.20;;;16.47;99.86;100617.97;5050707;28;20052;-72
2021/09/25 08:20:20;;;;;;;11.43;6.88;;;17.70;97.80;;;16.49;99.92;100618.59;5049489;28;20087;-72
2021/09/25 08:22:48;;;;;;;13.25;6.82;;;17.80;97.70;;;16.52;99.88;100620.91;5052282;28;20045;-72
2021/09/25 08:25:17;;;;;;;10.13;6.60;;;17.80;98.10;;;16.56;100.00;100633.13;5070279;28;20151;-73
2021/09/25 08:27:46;;;;;;;11.43;6.45;;;17.80;98.00;;;16.61;99.79;100627.81;5054686;28;20067;-72
2021/09/25 08:30:16;;;;;;;12.15;6.95;;;17.90;98.00;;;16.66;99.48;100630.75;5052459;28;20040;-72
2021/09/25 08:32:45;;;;;;;10.65;6.15;;;17.90;97.70;;;16.67;99.43;100629.66;5068326;28;20037;-73
2021/09/25 08:35:13;;;;;;;10.73;6.10;;;18.00;97.80;;;16.69;98.96;100633.03;5064898;28;20052;-72
2021/09/25 08:37:41;;;;;;;9.57;6.18;;;18.00;97.80;;;16.73;98.80;100630.69;5066616;28;20056;-72
2021/09/25 08:40:13;;;;;;;8.68;5.85;;;18.00;97.60;;;16.78;98.73;100619.88;5069927;28;20299;-72
2021/09/25 08:42:41;;;;;;;16.88;6.47;;;18.10;97.60;;;16.78;98.79;100626.19;5070272;28;20454;-72
2021/09/25 08:45:09;;;;;;;11.73;6.53;;;18.10;97.40;;;16.81;97.76;100636.75;5069604;28;20090;-72
2021/09/25 08:47:37;;;;;;;10.38;6.32;;;18.10;97.30;;;16.88;98.31;100630.41;5066806;28;20068;-73
2021/09/25 08:50:09;;;;;;;9.57;6.35;;;18.20;97.20;;;16.94;98.54;100630.31;5069159;28;20045;-72
2021/09/25 08:52:37;;;;;;;12.20;6.03;;;18.20;97.40;;;17.00;97.67;100636.84;5034742;28;20056;-71
2021/09/25 08:55:07;;;;;;;11.23;5.75;;;18.30;97.20;;;17.07;96.99;100634.06;5051579;28;20044;-72
2021/09/25 08:57:35;;;;;;;8.50;5.47;;;18.30;97.00;;;17.12;96.49;100632.31;5069972;28;20037;-72
2021/09/25 09:00:36;;;;;;;9.32;5.30;;;18.30;96.80;;;17.15;96.83;100637.38;5051305;28;20052;-72
2021/09/25 09:03:29;;;;;;;;;;;18.30;96.60;;;17.21;96.30;100635.63;5065004;28;20515;-72
2021/09/25 09:06:08;;;;;;;9.70;5.40;;;18.40;96.70;;;17.30;96.84;100638.91;5060910;28;19928;-73
2021/09/25 09:08:36;;;;;;;11.85;5.55;;;18.40;96.90;;;17.36;96.38;100640.75;5049717;28;20090;-72
2021/09/25 09:11:04;;;;;;;8.93;5.10;;;18.50;96.80;;;17.41;95.08;100635.41;5048845;28;20148;-72
2021/09/25 09:13:32;;;;;;;10.02;5.80;;;18.50;96.50;;;17.41;94.79;100635.41;5049642;28;20037;-73
2021/09/25 09:16:04;;;;;;;10.48;5.30;;;18.50;95.80;;;17.47;94.87;100634.50;5049866;28;20478;-73
2021/09/25 09:18:34;;;;;;;9.73;5.28;;;18.60;96.00;;;17.49;94.03;100648.88;5049130;28;20083;-73
2021/09/25 09:21:22;;;;;;;10.10;5.32;;;18.60;95.00;;;17.58;94.26;100649.44;5031738;28;20199;-72
2021/09/25 09:23:53;;;;;;;9.43;5.38;;;18.60;95.30;;;17.63;93.28;100649.59;5049923;28;20049;-72
2021/09/25 09:26:23;;;;;;;11.40;5.38;;;18.60;94.80;;;17.71;93.78;100652.03;5049840;28;20048;-72
2021/09/25 09:28:54;;;;;;;9.93;6.05;;;18.60;95.40;;;17.76;93.03;100654.09;5049362;28;20049;-72
2021/09/25 09:31:22;;;;;;;19.95;8.13;;;18.60;95.20;;;17.76;92.89;100654.97;5049774;28;20045;-72
2021/09/25 09:33:53;;;;;;;15.25;6.10;;;18.70;95.20;;;17.77;91.92;100658.56;5050252;28;20061;-72
2021/09/25 09:36:29;;;;;;;13.40;5.65;;;18.70;94.70;;;17.86;91.90;100654.47;5051276;28;20512;-72
2021/09/25 09:39:07;;;;;;;18.90;8.73;;;18.80;94.70;;;17.90;92.18;100655.69;5049185;28;20060;-72
2021/09/25 09:41:38;;;;;;;13.55;6.70;;;18.80;94.90;;;17.96;92.29;100660.25;5049258;28;20047;-72
2021/09/25 09:44:08;;;;;;;19.60;8.38;;;18.80;94.90;;;17.96;91.52;100659.44;5031189;28;20095;-72
2021/09/25 09:46:40;;;;;;;18.53;7.93;;;18.80;94.20;;;17.95;91.90;100658.59;5049255;28;20052;-72
2021/09/25 09:49:12;;;;;;;18.85;8.77;;;18.90;94.60;;;17.94;91.35;100658.81;5047564;28;20306;-72
2021/09/25 09:51:49;;;;;;;10.45;6.05;;;18.90;94.10;;;17.97;91.79;100664.72;5048579;28;20455;-72
2021/09/25 09:54:28;;;;;;;14.43;7.00;;;18.90;94.30;;;18.04;91.45;100661.03;5049887;28;20041;-72
2021/09/25 09:56:58;;;;;;;9.93;5.97;;;18.90;95.10;;;18.09;91.58;100670.28;5072015;22;20479;-74
2021/09/25 09:59:27;;;;;;;13.27;6.90;;;19.00;94.50;;;18.18;91.62;100670.78;5069886;28;20063;-72
2021/09/25 10:01:55;;;;;;;11.88;6.30;;;19.00;94.40;;;18.22;90.67;100669.28;5061530;28;20045;-72
2021/09/25 10:04:22;;;;;;;9.57;5.72;;;19.00;93.90;;;18.26;91.40;100676.00;5049671;28;20055;-73
2021/09/25 10:06:52;;;;;;;11.95;6.05;;;19.10;94.40;;;18.32;90.64;100675.06;5047487;28;20041;-74
2021/09/25 10:09:22;;;;;;;10.30;6.07;;;19.10;94.00;;;18.41;91.21;100674.75;5050222;28;20048;-72